Moree, Australia
Current Conditions -  °F | °C
As of 10:00 AM on Sunday 21 Dec 2014 (Local Time) from YMOR Reporting Station
Overcast Overcast  
Wind Chill: 81°   Ceiling: 3600
Heat Index: 81°   Visibility: 6mi
Dew Point: 61°   Wind: 20mph
Humidity: 51%   Direction: 40°NE
Pressure: 30.03"   Gusts: NA
Location:  29.46°S, 149.84°E
Report Text: YMOR 202300Z AUTO 04017KT 9999 // BKN036 OVC045 27/16 Q1017
Loading
Personal Weather Stations






























Interactive Weather Map New forecast layout! Learn more

10-Day Weather Forecast

Advertisements
Track Severe Weather on mobile